Light Rain Showers Current Weather (METAR) For Innsbruck - Kranebitten Airport

All times on the weather descriptions are local

Observed at 00:20 - (28 mins ago)

Light Rain Showers

7°C

Light Rain Showers
Clouds: Few Clouds at 400ft, Broken Clouds at 800ft
Wind: 170° at 02 knots
Visibility: 8,000m
QNH: 1025
Dew Point: 7°C
Runway in Use:
Runway 26 - 08 has a direct crosswind

Sunrise Today: 07:46
Sunset Today: 18:10

Forecast Weather (TAF) For Innsbruck - Kranebitten Airport

Issued at 02:00 - (5 days 1 hr ago)


Runway in Use: Unable to determine, wind is clam

Forecast valid until 02:00 on Friday

METAR/TAF RAW METAR / TAF

LOWI 252220Z AUTO 17002KT 8000 -SHRA FEW004 BKN008 07/07 Q1025

Weather Widget

Put weather from any of our airports on your website with our weather widget.

Find Another Search

Airport Search


Please Wait Please Wait - Loading
Close
Close

Login

Username:

Password:

Remember Me:

Remember me on this computer

Forgotten your password? Get a reset password sent to your registered e-mail address

Close

User Private Message

Subject:

Message: